Time;durP1;ratioP1;P1;durP2;ratioP2;P2;SDS_P1;SDS_P2;PMS_P1;PMS_P2;Temp;Humidity;BMP_temperature;BMP_pressure;BME280_temperature;BME280_humidity;BME280_pressure;Samples;Min_cycle;Max_cycle;Signal;HPM_P1;HPM_P2
2022/01/23 00:00:55;;;;;;;14.10;8.57;;;6.00;99.90;;;;;;5069699;28;20570;-68
2022/01/23 00:03:22;;;;;;;17.27;9.57;;;6.00;99.90;;;;;;5072282;28;20206;-68
2022/01/23 00:05:52;;;;;;;15.13;8.10;;;6.10;99.90;;;;;;5079737;28;20656;-68
2022/01/23 00:08:21;;;;;;;16.40;8.80;;;6.00;99.90;;;;;;5090392;28;20208;-67
2022/01/23 00:10:51;;;;;;;17.53;8.67;;;6.00;99.90;;;;;;5090130;28;20202;-68
2022/01/23 00:13:27;;;;;;;16.57;9.00;;;6.00;99.90;;;;;;5086643;28;20718;-67
2022/01/23 00:18:38;;;;;;;15.37;7.90;;;6.00;99.90;;;;;;5090989;28;20208;-68
2022/01/23 00:21:05;;;;;;;16.60;8.67;;;6.00;99.90;;;;;;5089420;28;21389;-68
2022/01/23 00:30:18;;;;;;;15.27;8.30;;;6.00;99.90;;;;;;5085328;28;20224;-68
2022/01/23 00:31:51;;;;;;;14.10;7.53;;;6.00;99.90;;;;;;5069680;28;20591;-68
2022/01/23 00:34:19;;;;;;;14.13;6.77;;;6.00;99.90;;;;;;5081639;28;20213;-68
2022/01/23 00:36:46;;;;;;;11.97;6.90;;;5.90;99.90;;;;;;5086192;28;20205;-68
2022/01/23 00:39:13;;;;;;;12.40;6.77;;;5.90;99.90;;;;;;5083025;28;20198;-68
2022/01/23 00:41:41;;;;;;;11.10;6.50;;;5.90;99.90;;;;;;5074808;28;20708;-68
2022/01/23 00:44:08;;;;;;;11.83;6.30;;;5.90;99.90;;;;;;5091060;28;20262;-68
2022/01/23 00:46:38;;;;;;;14.40;6.93;;;6.00;99.90;;;;;;5088718;28;20822;-68
2022/01/23 00:49:25;;;;;;;13.70;7.00;;;6.00;99.90;;;;;;5087110;28;20213;-70
2022/01/23 00:51:53;;;;;;;10.53;6.17;;;6.00;99.90;;;;;;5089997;28;20205;-69
2022/01/23 00:54:21;;;;;;;12.43;6.50;;;5.90;99.90;;;;;;5091167;28;20733;-68
2022/01/23 00:56:50;;;;;;;11.73;6.47;;;5.90;99.90;;;;;;5090147;28;20202;-68
2022/01/23 00:59:17;;;;;;;11.77;5.97;;;5.90;99.90;;;;;;5090889;28;20206;-68
2022/01/23 01:01:44;;;;;;;13.17;6.60;;;5.90;99.90;;;;;;5090394;28;20760;-68
2022/01/23 01:04:11;;;;;;;9.87;6.30;;;5.90;99.90;;;;;;5090336;28;20294;-68
2022/01/23 01:06:38;;;;;;;12.47;6.87;;;5.90;99.90;;;;;;5074499;28;20206;-68
2022/01/23 01:09:07;;;;;;;10.37;6.10;;;5.90;99.90;;;;;;5073408;28;20727;-68
2022/01/23 01:14:30;;;;;;;14.17;6.73;;;5.90;99.90;;;;;;5070045;28;20290;-68
2022/01/23 01:17:05;;;;;;;11.80;7.47;;;5.90;99.90;;;;;;5070441;28;20202;-68
2022/01/23 01:30:34;;;;;;;13.83;7.43;;;5.90;99.90;;;;;;5086134;28;20205;-68
2022/01/23 01:33:12;;;;;;;13.97;7.50;;;5.90;99.90;;;;;;5070501;28;20205;-68
2022/01/23 01:35:43;;;;;;;12.33;7.10;;;5.90;99.90;;;;;;5085870;28;20393;-69
2022/01/23 01:38:11;;;;;;;13.37;7.27;;;5.80;99.90;;;;;;5090753;28;20662;-68
2022/01/23 01:40:38;;;;;;;11.60;7.30;;;5.90;99.90;;;;;;5090004;28;20208;-68
2022/01/23 01:43:06;;;;;;;9.20;6.53;;;5.90;99.90;;;;;;5071257;28;20491;-68
2022/01/23 01:45:35;;;;;;;10.30;7.03;;;5.90;99.90;;;;;;5069724;28;20195;-69
2022/01/23 01:48:04;;;;;;;13.13;6.93;;;5.90;99.90;;;;;;5069550;28;20210;-68
2022/01/23 01:50:33;;;;;;;15.47;7.73;;;5.90;99.90;;;;;;5070016;28;20194;-68
2022/01/23 01:53:00;;;;;;;12.23;7.50;;;5.90;99.90;;;;;;5072032;28;20585;-69
2022/01/23 01:55:31;;;;;;;15.50;7.83;;;5.90;99.90;;;;;;5080193;28;20197;-68
2022/01/23 01:58:03;;;;;;;15.17;8.23;;;5.90;99.90;;;;;;5092091;28;20206;-68
2022/01/23 02:00:44;;;;;;;13.57;8.10;;;5.80;99.90;;;;;;5089054;28;20228;-68
2022/01/23 02:08:16;;;;;;;14.73;8.17;;;5.80;99.90;;;;;;5097797;28;20243;-68
2022/01/23 02:08:57;;;;;;;17.37;9.27;;;5.70;99.90;;;;;;5095847;28;20826;-68
2022/01/23 02:11:41;;;;;;;14.97;7.90;;;5.60;99.90;;;;;;5096759;28;20671;-68
2022/01/23 02:14:24;;;;;;;13.87;7.73;;;5.60;99.90;;;;;;5093924;28;20205;-68
2022/01/23 02:17:14;;;;;;;17.57;9.13;;;5.60;99.90;;;;;;5097938;28;20292;-68
2022/01/23 02:22:50;;;;;;;12.90;7.63;;;5.50;99.90;;;;;;5101941;28;20585;-68
2022/01/23 02:50:30;;;;;;;16.00;7.97;;;5.60;99.90;;;;;;5093975;28;20733;-68
2022/01/23 02:53:16;;;;;;;14.73;7.53;;;5.10;99.90;;;;;;5096271;28;20611;-68
2022/01/23 02:55:48;;;;;;;13.63;7.53;;;5.10;99.90;;;;;;5096004;28;20204;-68
2022/01/23 02:58:20;;;;;;;15.67;7.47;;;5.00;99.90;;;;;;5091518;28;20217;-68
2022/01/23 03:01:07;;;;;;;11.40;7.07;;;5.10;99.90;;;;;;5092877;28;20334;-68
2022/01/23 03:03:37;;;;;;;12.67;6.77;;;5.10;99.90;;;;;;5097075;28;20280;-68
2022/01/23 03:06:19;;;;;;;15.43;7.40;;;5.10;99.90;;;;;;5101833;28;20210;-68
2022/01/23 03:09:09;;;;;;;11.73;6.60;;;5.20;99.90;;;;;;5094868;28;20240;-68
2022/01/23 03:12:01;;;;;;;14.63;7.57;;;5.20;99.90;;;;;;5089297;28;20228;-68
2022/01/23 03:14:41;;;;;;;10.93;6.30;;;5.30;99.90;;;;;;5096117;28;20202;-69
2022/01/23 03:25:45;;;;;;;11.50;6.53;;;5.30;99.90;;;;;;5091738;28;20593;-68
2022/01/23 03:28:21;;;;;;;13.90;7.10;;;5.40;99.90;;;;;;5097913;28;20472;-68
2022/01/23 03:30:55;;;;;;;12.80;7.40;;;5.40;99.90;;;;;;5095842;28;21167;-68
2022/01/23 03:33:22;;;;;;;11.13;6.87;;;5.40;99.90;;;;;;5095292;28;20609;-68
2022/01/23 03:35:49;;;;;;;10.53;6.17;;;5.40;99.90;;;;;;5090426;28;20213;-68
2022/01/23 03:38:16;;;;;;;11.97;6.43;;;5.40;99.90;;;;;;5094948;28;20626;-68
2022/01/23 03:40:43;;;;;;;10.97;6.37;;;5.40;99.90;;;;;;5093933;28;20247;-68
2022/01/23 03:43:13;;;;;;;9.97;5.73;;;5.40;99.90;;;;;;5094568;28;20221;-68
2022/01/23 03:46:08;;;;;;;10.53;5.87;;;5.40;99.90;;;;;;5087082;28;20244;-68
2022/01/23 03:51:20;;;;;;;10.10;5.70;;;5.40;99.90;;;;;;5095932;28;20209;-68
2022/01/23 03:53:47;;;;;;;11.80;6.13;;;5.50;99.90;;;;;;5093522;28;20197;-68
2022/01/23 03:56:17;;;;;;;12.87;6.33;;;5.50;99.90;;;;;;5082446;28;20208;-69
2022/01/23 03:58:44;;;;;;;10.83;6.07;;;5.50;99.90;;;;;;5070790;28;20568;-68
2022/01/23 04:01:13;;;;;;;10.50;5.50;;;5.50;99.90;;;;;;5079498;28;20263;-68
2022/01/23 04:03:40;;;;;;;13.20;5.70;;;5.50;99.90;;;;;;5078538;28;20260;-69
2022/01/23 04:06:08;;;;;;;10.17;5.77;;;5.40;99.90;;;;;;5075323;28;20213;-68
2022/01/23 04:08:34;;;;;;;10.77;5.03;;;5.40;99.90;;;;;;5075220;28;20694;-68
2022/01/23 04:11:02;;;;;;;11.23;5.20;;;5.40;99.90;;;;;;5089016;28;20247;-68
2022/01/23 04:13:40;;;;;;;7.73;5.00;;;5.40;99.90;;;;;;5091278;28;20251;-68
2022/01/23 04:16:17;;;;;;;7.87;5.17;;;5.40;99.90;;;;;;5089837;28;20205;-68
2022/01/23 04:32:42;;;;;;;9.97;5.20;;;5.40;99.90;;;;;;5088599;28;20580;-68
2022/01/23 04:35:39;;;;;;;8.90;4.83;;;5.40;99.90;;;;;;5081232;28;20194;-67
2022/01/23 04:46:38;;;;;;;7.97;3.93;;;5.40;99.90;;;;;;5077544;28;20288;-68
2022/01/23 04:59:33;;;;;;;7.83;4.47;;;5.40;99.90;;;;;;5070715;28;20199;-68
2022/01/23 05:00:10;;;;;;;5.37;3.67;;;5.40;99.90;;;;;;5089244;28;20678;-67
2022/01/23 05:03:11;;;;;;;7.13;4.13;;;5.40;99.90;;;;;;5090199;28;20229;-68
2022/01/23 05:05:36;;;;;;;6.37;4.03;;;5.40;99.90;;;;;;5073362;28;20216;-68
2022/01/23 05:08:08;;;;;;;6.03;4.00;;;5.40;99.90;;;;;;5090007;28;20210;-67
2022/01/23 05:10:35;;;;;;;7.53;4.00;;;5.40;99.90;;;;;;5090034;28;20209;-68
2022/01/23 05:13:02;;;;;;;8.33;4.73;;;5.40;99.90;;;;;;5089975;28;20265;-68
2022/01/23 05:15:29;;;;;;;7.07;3.80;;;5.40;99.90;;;;;;5089143;28;20208;-67
2022/01/23 05:17:56;;;;;;;6.47;4.07;;;5.40;99.90;;;;;;5089813;28;20201;-68
2022/01/23 05:20:27;;;;;;;6.80;4.33;;;5.40;99.90;;;;;;5089963;28;20226;-68
2022/01/23 05:22:59;;;;;;;5.80;3.80;;;5.40;99.90;;;;;;5088451;28;20236;-68
2022/01/23 05:25:30;;;;;;;6.37;4.27;;;5.40;99.90;;;;;;5087970;28;20643;-68
2022/01/23 05:27:57;;;;;;;6.37;4.30;;;5.40;99.90;;;;;;5093767;28;20641;-67
2022/01/23 05:30:24;;;;;;;6.77;4.23;;;5.40;99.90;;;;;;5084947;28;20255;-68
2022/01/23 05:32:52;;;;;;;7.17;4.13;;;5.40;99.90;;;;;;5088044;28;20229;-68
2022/01/23 05:35:20;;;;;;;7.17;4.50;;;5.40;99.90;;;;;;5078839;28;20597;-68
2022/01/23 05:37:48;;;;;;;7.20;4.23;;;5.40;99.90;;;;;;5087239;28;20255;-68
2022/01/23 05:40:18;;;;;;;8.30;4.87;;;5.40;99.90;;;;;;5097232;28;20197;-67
2022/01/23 05:42:46;;;;;;;12.63;7.17;;;5.40;99.90;;;;;;5092617;28;20221;-67
2022/01/23 05:45:13;;;;;;;8.27;4.40;;;5.40;99.90;;;;;;5089915;28;20202;-68
2022/01/23 05:47:40;;;;;;;7.27;4.60;;;5.40;99.90;;;;;;5083913;28;20202;-68
2022/01/23 05:50:08;;;;;;;9.73;4.83;;;5.40;99.90;;;;;;5090863;28;20241;-68
2022/01/23 05:52:36;;;;;;;8.20;4.63;;;5.40;99.90;;;;;;5094555;28;20233;-68
2022/01/23 05:55:04;;;;;;;8.20;4.67;;;5.40;99.90;;;;;;5092675;28;20244;-68
2022/01/23 05:57:31;;;;;;;6.50;3.57;;;5.40;99.90;;;;;;5094917;28;20254;-68
2022/01/23 05:59:59;;;;;;;8.13;4.50;;;5.40;99.90;;;;;;5096260;28;20259;-68
2022/01/23 06:02:26;;;;;;;6.87;4.13;;;5.40;99.90;;;;;;5100165;28;20221;-68
2022/01/23 06:04:53;;;;;;;7.77;4.50;;;5.40;99.90;;;;;;5097797;28;20330;-68
2022/01/23 06:07:20;;;;;;;11.40;6.17;;;5.40;99.90;;;;;;5104829;27;20204;-68
2022/01/23 06:09:47;;;;;;;9.53;5.10;;;5.40;99.90;;;;;;5097953;28;20260;-68
2022/01/23 06:12:15;;;;;;;5.33;3.53;;;5.40;99.90;;;;;;5100245;28;20745;-68
2022/01/23 06:14:42;;;;;;;6.53;4.53;;;5.40;99.90;;;;;;5099365;27;20789;-68
2022/01/23 06:17:10;;;;;;;12.10;4.60;;;5.50;99.90;;;;;;5095992;28;20608;-67
2022/01/23 06:19:39;;;;;;;5.63;4.13;;;5.50;99.90;;;;;;5098182;28;20260;-68
2022/01/23 06:22:06;;;;;;;5.93;3.90;;;5.50;99.90;;;;;;5101947;28;20713;-67
2022/01/23 06:24:33;;;;;;;6.23;4.03;;;5.50;99.90;;;;;;5102723;28;20209;-68
2022/01/23 06:27:03;;;;;;;5.30;3.60;;;5.40;99.90;;;;;;5099689;28;20237;-68
2022/01/23 06:29:31;;;;;;;5.70;3.60;;;5.50;99.90;;;;;;5100246;28;20644;-67
2022/01/23 06:32:00;;;;;;;7.20;3.60;;;5.50;99.90;;;;;;5099503;28;20288;-67
2022/01/23 06:34:29;;;;;;;5.10;3.47;;;5.50;99.90;;;;;;5096035;28;20228;-68
2022/01/23 06:36:56;;;;;;;5.80;3.10;;;5.50;99.90;;;;;;5098627;28;20221;-68
2022/01/23 06:39:24;;;;;;;5.80;3.40;;;5.50;99.90;;;;;;5099712;28;20240;-68
2022/01/23 06:41:52;;;;;;;4.77;2.93;;;5.50;99.90;;;;;;5095672;28;20251;-68
2022/01/23 06:44:19;;;;;;;5.50;3.53;;;5.50;99.90;;;;;;5096182;28;20210;-68
2022/01/23 06:46:46;;;;;;;9.17;5.40;;;5.50;99.90;;;;;;5096021;28;20632;-67
2022/01/23 06:49:13;;;;;;;5.93;3.83;;;5.50;99.90;;;;;;5094441;28;20197;-68
2022/01/23 06:51:42;;;;;;;7.17;4.47;;;5.60;99.90;;;;;;5101114;28;20193;-67
2022/01/23 06:54:10;;;;;;;11.63;4.07;;;5.60;99.90;;;;;;5099847;28;20307;-68
2022/01/23 06:56:37;;;;;;;6.57;4.60;;;5.60;99.90;;;;;;5097611;28;20233;-68
2022/01/23 06:59:04;;;;;;;9.93;5.70;;;5.60;99.90;;;;;;5097020;28;20201;-68
2022/01/23 07:01:31;;;;;;;9.43;5.40;;;5.60;99.90;;;;;;5093988;28;20198;-68
2022/01/23 07:03:58;;;;;;;10.47;5.53;;;5.60;99.90;;;;;;5099585;28;20231;-68
2022/01/23 07:06:25;;;;;;;9.37;5.27;;;5.60;99.90;;;;;;5089872;28;20216;-68
2022/01/23 07:08:53;;;;;;;9.37;5.27;;;5.60;99.90;;;;;;5090450;28;20710;-68
2022/01/23 07:11:20;;;;;;;11.37;6.07;;;5.60;99.90;;;;;;5098499;28;20293;-68
2022/01/23 07:13:47;;;;;;;10.30;5.77;;;5.60;99.90;;;;;;5094122;28;20733;-68
2022/01/23 07:16:14;;;;;;;10.00;5.87;;;5.60;99.90;;;;;;5095652;28;20202;-68
2022/01/23 07:18:41;;;;;;;11.43;5.80;;;5.50;99.90;;;;;;5096016;28;20194;-68
2022/01/23 07:21:08;;;;;;;10.53;5.80;;;5.60;99.90;;;;;;5093656;28;20237;-68
2022/01/23 07:23:35;;;;;;;9.73;5.40;;;5.50;99.90;;;;;;5097041;28;20270;-68
2022/01/23 07:26:04;;;;;;;9.47;5.47;;;5.50;99.90;;;;;;5094132;28;20612;-68
2022/01/23 07:28:37;;;;;;;8.10;5.07;;;5.60;99.90;;;;;;5097420;28;20709;-68
2022/01/23 07:31:06;;;;;;;9.27;5.40;;;5.60;99.90;;;;;;5096232;28;20296;-68
2022/01/23 07:33:36;;;;;;;8.07;4.80;;;5.60;99.90;;;;;;5097357;28;20292;-68
2022/01/23 07:36:03;;;;;;;7.17;4.47;;;5.60;99.90;;;;;;5091649;28;20682;-68
2022/01/23 07:38:31;;;;;;;8.67;5.00;;;5.60;99.90;;;;;;5089239;28;20313;-68
2022/01/23 07:40:59;;;;;;;9.67;5.07;;;5.60;99.90;;;;;;5096700;28;20212;-68
2022/01/23 07:43:27;;;;;;;8.23;4.57;;;5.60;99.90;;;;;;5100323;28;20277;-68
2022/01/23 07:45:54;;;;;;;8.80;4.23;;;5.60;99.90;;;;;;5089366;28;20197;-68
2022/01/23 07:48:21;;;;;;;6.50;4.13;;;5.60;99.90;;;;;;5096285;28;20248;-68
2022/01/23 07:50:48;;;;;;;6.43;3.90;;;5.70;99.90;;;;;;5094057;28;21734;-68
2022/01/23 07:53:15;;;;;;;7.77;3.97;;;5.70;99.90;;;;;;5092969;28;20202;-67
2022/01/23 07:55:42;;;;;;;6.83;3.67;;;5.70;99.90;;;;;;5095174;28;20246;-68
2022/01/23 07:58:13;;;;;;;6.77;3.80;;;5.70;99.90;;;;;;5099293;28;20293;-68
2022/01/23 08:00:42;;;;;;;4.77;2.90;;;5.80;99.90;;;;;;5096209;27;20717;-68
2022/01/23 08:03:09;;;;;;;6.30;2.90;;;5.80;99.90;;;;;;5095767;28;20675;-68
2022/01/23 08:05:37;;;;;;;6.07;3.00;;;5.80;99.90;;;;;;5089031;28;20205;-68
2022/01/23 08:08:04;;;;;;;3.83;3.13;;;5.80;99.90;;;;;;5103486;28;20618;-68
2022/01/23 08:10:32;;;;;;;10.97;5.10;;;5.90;99.90;;;;;;5098709;28;20436;-68
2022/01/23 08:12:59;;;;;;;5.90;3.23;;;5.90;99.90;;;;;;5090653;28;20357;-68
2022/01/23 08:15:26;;;;;;;7.03;3.60;;;5.90;99.90;;;;;;5095002;28;20563;-68
2022/01/23 08:17:54;;;;;;;5.17;3.30;;;5.90;99.90;;;;;;5083341;28;20605;-68
2022/01/23 08:20:22;;;;;;;11.97;4.67;;;6.00;99.90;;;;;;5096507;28;20198;-68
2022/01/23 08:22:49;;;;;;;5.47;3.27;;;6.00;99.90;;;;;;5097601;28;20698;-68
2022/01/23 08:25:16;;;;;;;6.13;3.57;;;6.00;99.90;;;;;;5090051;28;20582;-68
2022/01/23 08:27:43;;;;;;;5.17;3.07;;;6.00;99.90;;;;;;5091045;28;20205;-68
2022/01/23 08:30:12;;;;;;;5.37;3.13;;;6.00;99.90;;;;;;5100026;28;20262;-68
2022/01/23 08:32:39;;;;;;;7.70;3.23;;;6.00;99.90;;;;;;5092923;28;20205;-68
2022/01/23 08:35:08;;;;;;;4.63;3.27;;;6.10;99.90;;;;;;5094998;28;20655;-68
2022/01/23 08:37:35;;;;;;;5.77;3.00;;;6.10;99.90;;;;;;5094102;28;20201;-68
2022/01/23 08:40:04;;;;;;;4.80;3.07;;;6.10;99.90;;;;;;5096952;28;20198;-68
2022/01/23 08:42:32;;;;;;;7.43;3.23;;;6.20;99.90;;;;;;5095905;28;20308;-68
2022/01/23 08:45:00;;;;;;;6.83;2.87;;;6.20;99.90;;;;;;5091367;28;20302;-68
2022/01/23 08:47:27;;;;;;;6.80;4.00;;;6.20;99.90;;;;;;5094084;28;20252;-68
2022/01/23 08:49:54;;;;;;;8.87;3.93;;;6.20;99.90;;;;;;5083432;28;20233;-68
2022/01/23 08:52:22;;;;;;;8.03;4.40;;;6.20;99.90;;;;;;5093161;28;20201;-67
2022/01/23 08:54:56;;;;;;;7.40;3.67;;;6.30;99.90;;;;;;5097211;28;20561;-68
2022/01/23 08:57:24;;;;;;;10.73;5.57;;;6.30;99.90;;;;;;5096368;28;20202;-68
2022/01/23 08:59:51;;;;;;;8.50;4.27;;;6.30;99.90;;;;;;5096172;28;20247;-68
2022/01/23 09:02:19;;;;;;;8.20;4.77;;;6.30;99.90;;;;;;5093123;28;20243;-68
2022/01/23 09:04:47;;;;;;;11.23;5.73;;;6.20;99.90;;;;;;5093210;28;20312;-68
2022/01/23 09:07:14;;;;;;;11.03;4.90;;;6.30;99.90;;;;;;5096642;28;20246;-68
2022/01/23 09:09:43;;;;;;;7.67;4.40;;;6.30;99.90;;;;;;5093548;28;20242;-68
2022/01/23 09:12:28;;;;;;;8.20;4.83;;;6.30;99.90;;;;;;5097045;28;20713;-68
2022/01/23 09:14:56;;;;;;;5.87;3.90;;;6.30;99.90;;;;;;5091544;28;20197;-68
2022/01/23 09:17:23;;;;;;;5.87;4.13;;;6.40;99.90;;;;;;5093726;28;20201;-68
2022/01/23 09:19:50;;;;;;;7.43;4.63;;;6.30;99.90;;;;;;5095243;28;20236;-68
2022/01/23 09:22:17;;;;;;;8.63;4.43;;;6.40;99.90;;;;;;5096320;28;20205;-68
2022/01/23 09:24:45;;;;;;;9.47;5.50;;;6.40;99.90;;;;;;5094888;28;20229;-68
2022/01/23 09:27:18;;;;;;;8.20;4.43;;;6.40;99.90;;;;;;5097230;28;20601;-67
2022/01/23 09:29:49;;;;;;;7.83;4.43;;;6.40;99.90;;;;;;5093350;28;20255;-68
2022/01/23 09:32:18;;;;;;;9.17;5.37;;;6.40;99.90;;;;;;5091346;28;20251;-68
2022/01/23 09:34:46;;;;;;;9.50;5.50;;;6.40;99.90;;;;;;5099857;28;20293;-68
2022/01/23 09:37:15;;;;;;;12.90;6.27;;;6.40;99.90;;;;;;5097575;28;20197;-68
2022/01/23 09:39:46;;;;;;;8.83;4.90;;;6.50;99.90;;;;;;5090146;28;20247;-68
2022/01/23 09:42:15;;;;;;;14.87;7.10;;;6.40;99.90;;;;;;5092147;28;20205;-68
2022/01/23 09:44:45;;;;;;;8.97;5.03;;;6.50;99.90;;;;;;5099114;28;20602;-68
2022/01/23 09:47:14;;;;;;;11.00;5.93;;;6.50;99.90;;;;;;5097582;28;20197;-68
2022/01/23 09:49:43;;;;;;;8.70;5.20;;;6.50;99.90;;;;;;5093478;28;20263;-68
2022/01/23 09:52:12;;;;;;;9.37;5.30;;;6.50;99.90;;;;;;5091915;28;20258;-68
2022/01/23 09:54:41;;;;;;;9.17;5.50;;;6.60;99.90;;;;;;5096876;28;20197;-68
2022/01/23 09:57:11;;;;;;;9.50;5.17;;;6.60;99.90;;;;;;5095560;28;20201;-68
2022/01/23 09:59:40;;;;;;;9.43;5.03;;;6.60;99.90;;;;;;5094324;28;20627;-68
2022/01/23 10:02:08;;;;;;;8.80;4.77;;;6.60;99.90;;;;;;5090779;28;20261;-68
2022/01/23 10:04:35;;;;;;;10.27;5.63;;;6.50;99.90;;;;;;5096634;28;20698;-68
2022/01/23 10:07:05;;;;;;;8.07;4.50;;;6.60;99.90;;;;;;5092564;28;20255;-68
2022/01/23 10:09:33;;;;;;;9.10;5.63;;;6.60;99.90;;;;;;5091550;28;20201;-68
2022/01/23 10:12:01;;;;;;;7.00;4.73;;;6.60;99.90;;;;;;5096860;28;20247;-68
2022/01/23 10:14:29;;;;;;;12.20;5.93;;;6.70;99.90;;;;;;5095057;28;20221;-68
2022/01/23 10:16:56;;;;;;;9.67;5.87;;;6.70;99.90;;;;;;5097723;28;20198;-68
2022/01/23 10:19:23;;;;;;;9.60;6.20;;;6.70;99.90;;;;;;5097693;28;20238;-67
2022/01/23 10:21:51;;;;;;;9.33;5.47;;;6.80;99.90;;;;;;5096319;28;20255;-68
2022/01/23 10:24:18;;;;;;;9.93;5.50;;;6.80;99.90;;;;;;5100334;28;20711;-68
2022/01/23 10:26:49;;;;;;;10.07;6.10;;;6.80;99.90;;;;;;5105774;27;20198;-68
2022/01/23 10:29:24;;;;;;;11.03;6.07;;;6.90;99.90;;;;;;5098451;28;20205;-68
2022/01/23 10:32:11;;;;;;;9.27;5.47;;;6.90;99.90;;;;;;5098585;28;20197;-68
2022/01/23 10:34:50;;;;;;;9.00;5.23;;;7.00;99.90;;;;;;5088697;22;20227;-68
2022/01/23 10:37:33;;;;;;;9.77;5.67;;;7.00;99.90;;;;;;5054228;28;20207;-68
2022/01/23 10:40:05;;;;;;;8.03;5.03;;;7.10;99.90;;;;;;5052678;28;20203;-68
2022/01/23 10:48:36;;;;;;;9.93;5.03;;;7.10;99.90;;;;;;5042444;28;20586;-68
2022/01/23 10:51:23;;;;;;;12.20;5.80;;;7.10;99.90;;;;;;5046548;28;20277;-68
2022/01/23 10:54:07;;;;;;;10.70;5.67;;;7.00;99.90;;;;;;5043031;28;20234;-68
2022/01/23 10:56:39;;;;;;;10.13;5.93;;;7.00;99.90;;;;;;5051670;28;20294;-69
2022/01/23 10:59:09;;;;;;;11.13;6.00;;;7.00;99.90;;;;;;5048370;28;20556;-68
2022/01/23 11:01:37;;;;;;;10.17;6.43;;;7.00;99.90;;;;;;5050260;28;20204;-68
2022/01/23 11:04:11;;;;;;;15.60;8.30;;;7.00;99.90;;;;;;5045170;28;20581;-68
2022/01/23 11:06:56;;;;;;;13.53;7.33;;;7.10;99.90;;;;;;5046758;28;20203;-68
2022/01/23 11:09:29;;;;;;;14.27;7.87;;;7.10;99.90;;;;;;5043718;28;20608;-68
2022/01/23 11:12:02;;;;;;;12.03;5.80;;;7.10;99.90;;;;;;5044379;28;20211;-68
2022/01/23 11:17:24;;;;;;;11.93;6.20;;;7.20;99.90;;;;;;5052978;28;20215;-68
2022/01/23 11:19:54;;;;;;;10.97;6.50;;;7.10;99.90;;;;;;5052100;28;20210;-68
2022/01/23 11:22:24;;;;;;;10.17;5.87;;;7.10;99.90;;;;;;5050221;28;20221;-68
2022/01/23 11:24:52;;;;;;;9.90;6.20;;;7.10;99.90;;;;;;5050538;28;20229;-68
2022/01/23 11:27:21;;;;;;;10.67;6.03;;;7.10;99.90;;;;;;5054181;28;20203;-68
2022/01/23 11:29:59;;;;;;;9.37;6.07;;;7.10;99.90;;;;;;5048333;28;20213;-68
2022/01/23 11:32:30;;;;;;;9.17;5.67;;;7.20;99.90;;;;;;5052806;28;20206;-68
2022/01/23 11:35:07;;;;;;;12.03;6.63;;;7.20;99.90;;;;;;5043887;28;20230;-68
2022/01/23 11:37:34;;;;;;;9.73;6.00;;;7.20;99.90;;;;;;5045125;28;20648;-68
2022/01/23 11:40:08;;;;;;;9.80;6.13;;;7.10;99.90;;;;;;5047273;28;20213;-68
2022/01/23 11:56:45;;;;;;;10.43;6.03;;;7.30;99.90;;;;;;5028500;28;20199;-69
2022/01/23 11:59:21;;;;;;;13.20;7.17;;;7.30;99.90;;;;;;5052720;28;20203;-69
2022/01/23 12:01:51;;;;;;;10.87;6.20;;;7.30;99.90;;;;;;5049591;28;20305;-69
2022/01/23 12:04:20;;;;;;;12.23;6.37;;;7.30;99.90;;;;;;5051078;28;20700;-69
2022/01/23 12:07:21;;;;;;;10.73;5.90;;;7.30;99.90;;;;;;5051386;28;20255;-69
2022/01/23 12:10:13;;;;;;;9.73;6.37;;;7.30;99.90;;;;;;5050330;28;20206;-69
2022/01/23 12:12:42;;;;;;;11.50;6.43;;;7.40;99.90;;;;;;5052202;28;20218;-69
2022/01/23 12:18:17;;;;;;;7.83;5.43;;;7.40;99.90;;;;;;5053072;28;20326;-69
2022/01/23 12:20:45;;;;;;;9.23;5.47;;;7.30;99.90;;;;;;5056288;28;20207;-69
2022/01/23 12:23:14;;;;;;;9.63;5.07;;;7.40;99.90;;;;;;5049769;28;20578;-69
2022/01/23 12:25:43;;;;;;;7.77;5.33;;;7.40;99.90;;;;;;5051144;28;20622;-68
2022/01/23 12:28:21;;;;;;;8.07;5.60;;;7.40;99.90;;;;;;5050133;28;20210;-69
2022/01/23 12:30:50;;;;;;;9.77;6.00;;;7.50;99.90;;;;;;5051023;28;20212;-68
2022/01/23 12:33:30;;;;;;;10.37;6.67;;;7.50;99.90;;;;;;5048673;28;20223;-69
2022/01/23 12:36:07;;;;;;;8.10;5.00;;;7.50;99.90;;;;;;5046337;28;20872;-69
2022/01/23 12:38:40;;;;;;;8.47;5.20;;;7.40;99.90;;;;;;5028635;28;20296;-68
2022/01/23 12:41:29;;;;;;;9.73;6.07;;;7.50;99.90;;;;;;5050685;28;20297;-69
2022/01/23 12:43:59;;;;;;;9.17;6.07;;;7.40;99.90;;;;;;5053046;28;20215;-68
2022/01/23 12:46:37;;;;;;;8.73;6.23;;;7.40;99.90;;;;;;5050893;28;20211;-69
2022/01/23 12:49:28;;;;;;;9.80;5.53;;;7.40;99.90;;;;;;5052805;28;20664;-69
2022/01/23 12:52:14;;;;;;;8.37;5.27;;;7.40;99.90;;;;;;5044894;28;20239;-69
2022/01/23 12:54:57;;;;;;;8.50;5.43;;;7.50;99.90;;;;;;5053618;28;20659;-68
2022/01/23 12:57:33;;;;;;;7.80;5.50;;;7.40;99.90;;;;;;5024886;28;20221;-69
2022/01/23 13:00:05;;;;;;;7.93;5.77;;;7.40;99.90;;;;;;5027823;28;20271;-69
2022/01/23 13:02:39;;;;;;;7.63;4.67;;;7.50;99.90;;;;;;5048724;28;20207;-69
2022/01/23 13:05:07;;;;;;;7.57;5.10;;;7.50;99.90;;;;;;5049376;28;20229;-68
2022/01/23 13:07:41;;;;;;;9.10;5.40;;;7.40;99.90;;;;;;5044966;28;20202;-69
2022/01/23 13:10:26;;;;;;;8.57;4.70;;;7.40;99.90;;;;;;5049054;28;20653;-69
2022/01/23 13:13:07;;;;;;;8.27;5.13;;;7.50;99.90;;;;;;5048680;28;20213;-68
2022/01/23 13:18:38;;;;;;;8.43;5.53;;;7.50;99.90;;;;;;5032663;28;20333;-72
2022/01/23 13:32:13;;;;;;;6.87;4.80;;;7.60;99.90;;;;;;5033954;28;20207;-72
2022/01/23 13:34:42;;;;;;;6.23;4.50;;;7.50;99.90;;;;;;5045301;28;20241;-72
2022/01/23 13:37:11;;;;;;;6.53;4.67;;;7.50;99.90;;;;;;5047776;28;20207;-72
2022/01/23 13:39:46;;;;;;;6.90;4.63;;;7.60;99.90;;;;;;5047590;28;20245;-72
2022/01/23 13:51:20;;;;;;;9.73;5.07;;;7.60;99.90;;;;;;5053266;28;20211;-73
2022/01/23 13:54:19;;;;;;;9.83;6.30;;;7.50;99.90;;;;;;5056235;28;20211;-72
2022/01/23 13:59:40;;;;;;;8.23;4.83;;;7.50;99.90;;;;;;5052500;28;20274;-72
2022/01/23 14:02:17;;;;;;;7.77;4.87;;;7.50;99.90;;;;;;5030460;28;20658;-72
2022/01/23 14:04:47;;;;;;;8.47;5.00;;;7.50;99.90;;;;;;5049383;28;20573;-72
2022/01/23 14:07:19;;;;;;;8.23;4.67;;;7.50;99.90;;;;;;5053428;28;20211;-73
2022/01/23 14:09:54;;;;;;;8.47;4.80;;;7.50;99.90;;;;;;5050043;28;20297;-72
2022/01/23 14:12:22;;;;;;;8.20;4.83;;;7.50;99.90;;;;;;5056648;28;20211;-72
2022/01/23 14:14:53;;;;;;;4.93;3.90;;;7.50;99.90;;;;;;5054751;28;20217;-72
2022/01/23 14:17:21;;;;;;;6.30;4.50;;;7.50;99.90;;;;;;5049186;28;20206;-72
2022/01/23 14:20:04;;;;;;;8.70;4.50;;;7.40;99.90;;;;;;5051395;28;20213;-72
2022/01/23 14:22:33;;;;;;;7.40;4.83;;;7.50;99.90;;;;;;5053352;28;20613;-72
2022/01/23 14:25:16;;;;;;;6.93;4.03;;;7.40;99.90;;;;;;5049541;28;20219;-72
2022/01/23 14:27:46;;;;;;;7.60;5.17;;;7.40;99.90;;;;;;5049820;28;20207;-72
2022/01/23 14:30:20;;;;;;;13.57;7.90;;;7.40;99.90;;;;;;5052104;28;20230;-71
2022/01/23 14:32:51;;;;;;;7.87;4.20;;;7.40;99.90;;;;;;5050952;28;20263;-72
2022/01/23 14:35:24;;;;;;;10.17;6.07;;;7.30;99.90;;;;;;5051870;28;20244;-71
2022/01/23 14:37:51;;;;;;;8.07;5.17;;;7.30;99.90;;;;;;5051886;28;20301;-71
2022/01/23 14:40:22;;;;;;;8.90;5.57;;;7.30;99.90;;;;;;5054369;28;20211;-71
2022/01/23 14:43:04;;;;;;;8.67;5.83;;;7.30;99.90;;;;;;5050838;28;20551;-72
2022/01/23 14:45:37;;;;;;;11.93;6.57;;;7.30;99.90;;;;;;5051586;28;20635;-72
2022/01/23 14:48:06;;;;;;;11.00;6.50;;;7.30;99.90;;;;;;5047330;28;20208;-70
2022/01/23 14:50:35;;;;;;;12.10;6.93;;;7.30;99.90;;;;;;5048752;28;20633;-68
2022/01/23 14:53:10;;;;;;;10.30;6.97;;;7.30;99.90;;;;;;5046831;28;20210;-67
2022/01/23 14:55:39;;;;;;;14.57;7.80;;;7.30;99.90;;;;;;5052256;28;20252;-67
2022/01/23 14:58:06;;;;;;;9.70;6.03;;;7.30;99.90;;;;;;5052432;28;20268;-67
2022/01/23 15:00:35;;;;;;;8.60;4.80;;;7.30;99.90;;;;;;5048895;28;20569;-67
2022/01/23 15:03:03;;;;;;;9.60;4.50;;;7.30;99.90;;;;;;5051995;28;20198;-67
2022/01/23 15:05:32;;;;;;;7.40;4.93;;;7.20;99.90;;;;;;5047813;28;20728;-67
2022/01/23 15:08:00;;;;;;;7.57;5.03;;;7.20;99.90;;;;;;5050772;28;20203;-68
2022/01/23 15:10:28;;;;;;;7.37;5.10;;;7.20;99.90;;;;;;5049335;28;20207;-74
2022/01/23 15:12:55;;;;;;;6.73;4.73;;;7.20;99.90;;;;;;5049258;28;20234;-74
2022/01/23 15:15:23;;;;;;;5.03;3.90;;;7.20;99.90;;;;;;5048434;28;20531;-73
2022/01/23 15:17:51;;;;;;;5.93;4.50;;;7.20;99.90;;;;;;5055581;28;20235;-74
2022/01/23 15:20:21;;;;;;;7.00;4.33;;;7.20;99.90;;;;;;5049930;28;20203;-74
2022/01/23 15:22:48;;;;;;;7.77;4.73;;;7.20;99.90;;;;;;5049293;28;20199;-74
2022/01/23 15:25:18;;;;;;;5.00;4.10;;;7.10;99.90;;;;;;5056474;28;20351;-74
2022/01/23 15:27:46;;;;;;;8.10;5.70;;;7.10;99.90;;;;;;5054936;28;20208;-74
2022/01/23 15:30:16;;;;;;;6.27;4.83;;;7.10;99.90;;;;;;5047083;28;20238;-74
2022/01/23 15:32:44;;;;;;;9.07;5.63;;;7.10;99.90;;;;;;5051439;28;20600;-74
2022/01/23 15:35:14;;;;;;;8.10;5.20;;;7.10;99.90;;;;;;5052210;28;20211;-74
2022/01/23 15:37:42;;;;;;;6.60;4.83;;;7.10;99.90;;;;;;5050330;28;20636;-74
2022/01/23 15:40:11;;;;;;;5.87;4.67;;;7.10;99.90;;;;;;5047261;28;20223;-74